Girard, Georgia
Current Conditions -  °F | °C
As of 10:15 PM on Sunday 21 Dec 2014 (Local Time) from KBNL Reporting Station
Light Rain Light Rain  
Wind Chill: 43°   Ceiling: 1900
Heat Index: 46°   Visibility: NA
Dew Point: 46°   Wind: 7mph
Humidity: 100%   Direction: 30°NNE
Pressure: 30.15"   Gusts: NA
Location:  33.04°N, 81.71°W
Report Text: KBNL 220315Z AUTO 03006KT -RA BKN019 OVC026 08/08 A3015 RMK AO2
Loading
Personal Weather Stations






























Interactive Weather Map New forecast layout! Learn more

10-Day Weather Forecast

Advertisements
Track Severe Weather on mobile